Time;durP1;ratioP1;P1;durP2;ratioP2;P2;SDS_P1;SDS_P2;PMS_P1;PMS_P2;Temp;Humidity;BMP_temperature;BMP_pressure;BME280_temperature;BME280_humidity;BME280_pressure;Samples;Min_cycle;Max_cycle;Signal;HPM_P1;HPM_P2
2020/12/15 00:01:24;;;;;;;16.13;9.70;;;;;;;3.69;77.24;96077.28;4900530;29;20045;-73
2020/12/15 00:03:50;;;;;;;11.65;7.20;;;;;;;3.66;76.56;96086.22;4900854;29;20037;-73
2020/12/15 00:06:17;;;;;;;14.63;8.63;;;;;;;3.67;76.88;96076.66;4900239;29;20406;-73
2020/12/15 00:08:44;;;;;;;10.93;7.25;;;;;;;3.67;77.06;96081.84;4900304;29;20477;-73
2020/12/15 00:11:17;;;;;;;11.57;7.85;;;;;;;3.65;76.38;96079.44;4900157;29;20453;-73
2020/12/15 00:13:44;;;;;;;13.48;7.07;;;;;;;3.63;76.29;96078.00;4899363;29;20045;-73
2020/12/15 00:16:12;;;;;;;11.57;7.93;;;;;;;3.63;76.84;96070.22;4900126;29;20397;-73
2020/12/15 00:18:38;;;;;;;8.65;6.78;;;;;;;3.63;76.45;96062.44;4900183;29;20047;-73
2020/12/15 00:21:04;;;;;;;9.68;6.57;;;;;;;3.62;76.68;96058.25;4898395;29;20040;-73
2020/12/15 00:23:30;;;;;;;11.70;7.03;;;;;;;3.63;76.80;96059.84;4899671;29;20493;-73
2020/12/15 00:25:56;;;;;;;9.15;6.65;;;;;;;3.63;77.02;96063.28;4900045;29;20378;-73
2020/12/15 00:28:22;;;;;;;10.00;6.90;;;;;;;3.67;76.89;96055.91;4899303;29;20044;-73
2020/12/15 00:30:48;;;;;;;9.15;6.28;;;;;;;3.68;76.57;96057.53;4899858;29;20043;-73
2020/12/15 00:33:15;;;;;;;9.48;6.30;;;;;;;3.70;76.15;96060.75;4899708;29;20462;-73
2020/12/15 00:35:41;;;;;;;8.38;6.10;;;;;;;3.73;76.21;96049.19;4899724;29;20044;-73
2020/12/15 00:38:07;;;;;;;8.23;5.75;;;;;;;3.77;76.40;96046.03;4899570;29;20037;-73
2020/12/15 00:40:33;;;;;;;10.57;6.32;;;;;;;3.79;76.34;96046.66;4882690;29;20041;-73
2020/12/15 00:42:59;;;;;;;10.57;5.95;;;;;;;3.81;76.07;96049.88;4900088;29;20374;-73
2020/12/15 00:45:25;;;;;;;9.48;6.03;;;;;;;3.82;76.02;96063.63;4899444;29;20056;-73
2020/12/15 00:47:51;;;;;;;9.13;6.03;;;;;;;3.84;76.33;96049.53;4883122;29;20040;-73
2020/12/15 00:50:18;;;;;;;8.48;5.32;;;;;;;3.86;75.75;96047.53;4898634;29;20056;-73
2020/12/15 00:52:44;;;;;;;8.40;5.82;;;;;;;3.90;76.05;96053.13;4899373;29;20049;-73
2020/12/15 00:55:10;;;;;;;7.60;5.65;;;;;;;3.91;75.86;96052.16;4898515;29;20061;-73
2020/12/15 00:57:36;;;;;;;8.55;5.45;;;;;;;3.92;75.98;96040.78;4899234;29;20071;-73
2020/12/15 01:00:09;;;;;;;8.27;6.15;;;;;;;3.94;76.01;96044.00;4898689;29;20126;-73
2020/12/15 01:02:35;;;;;;;8.73;6.05;;;;;;;3.95;76.23;96050.81;4899230;29;20505;-73
2020/12/15 01:05:03;;;;;;;8.10;5.25;;;;;;;3.96;75.47;96047.22;4899305;29;20041;-72
2020/12/15 01:07:29;;;;;;;7.00;5.30;;;;;;;3.98;75.67;96050.44;4898747;29;20036;-73
2020/12/15 01:09:55;;;;;;;7.47;5.28;;;;;;;3.98;75.88;96042.66;4899234;29;20044;-73
2020/12/15 01:12:21;;;;;;;8.48;5.68;;;;;;;3.99;75.40;96043.44;4898947;29;20041;-73
2020/12/15 01:14:47;;;;;;;8.65;5.13;;;;;;;4.01;75.97;96064.81;4898865;29;20523;-73
2020/12/15 01:17:15;;;;;;;8.57;5.93;;;;;;;4.02;75.90;96069.03;4899162;29;20067;-73
2020/12/15 01:19:41;;;;;;;9.82;6.47;;;;;;;4.01;75.70;96060.44;4898892;29;20044;-73
2020/12/15 01:22:07;;;;;;;7.32;5.28;;;;;;;4.01;75.32;96052.66;4888646;29;20051;-73
2020/12/15 01:24:34;;;;;;;10.60;6.53;;;;;;;4.02;75.59;96051.66;4898376;29;20032;-73
2020/12/15 01:27:00;;;;;;;9.45;6.30;;;;;;;4.03;75.57;96050.69;4897660;29;20060;-73
2020/12/15 01:29:26;;;;;;;8.00;5.88;;;;;;;4.02;75.38;96048.28;4898613;29;20473;-73
2020/12/15 01:31:52;;;;;;;8.23;5.80;;;;;;;4.01;75.37;96057.03;4897959;29;20052;-73
2020/12/15 01:34:19;;;;;;;8.75;6.03;;;;;;;4.01;75.14;96051.84;4882090;29;20041;-73
2020/12/15 01:36:46;;;;;;;8.35;6.05;;;;;;;4.00;75.47;96039.88;4881981;29;20052;-73
2020/12/15 01:39:12;;;;;;;9.23;5.93;;;;;;;4.02;75.26;96037.88;4897414;29;20040;-73
2020/12/15 01:41:38;;;;;;;8.77;5.65;;;;;;;4.01;75.43;96042.28;4898519;29;20032;-73
2020/12/15 01:44:05;;;;;;;9.30;5.50;;;;;;;4.03;75.13;96044.66;4898575;29;20040;-73
2020/12/15 01:46:32;;;;;;;8.13;5.32;;;;;;;4.05;75.43;96064.28;4898537;29;20041;-73
2020/12/15 01:48:59;;;;;;;6.60;5.00;;;;;;;4.07;74.93;96069.25;4898623;29;20409;-73
2020/12/15 01:51:26;;;;;;;13.52;5.03;;;;;;;4.10;74.55;96075.88;4898021;29;20045;-73
2020/12/15 01:54:00;;;;;;;7.45;4.82;;;;;;;4.11;74.52;96073.09;4898175;29;20493;-73
2020/12/15 01:56:27;;;;;;;5.57;4.53;;;;;;;4.13;74.31;96068.53;4897787;29;20052;-73
2020/12/15 01:58:55;;;;;;;6.35;4.75;;;;;;;4.14;74.45;96061.56;4898105;29;20060;-73
2020/12/15 02:01:23;;;;;;;7.50;4.55;;;;;;;4.16;74.67;96065.56;4897994;29;20037;-73
2020/12/15 02:03:50;;;;;;;6.30;4.97;;;;;;;4.14;74.71;96064.94;4898331;29;20048;-73
2020/12/15 02:06:18;;;;;;;7.00;5.07;;;;;;;4.16;74.33;96059.53;4898464;29;20470;-73
2020/12/15 02:08:44;;;;;;;7.57;4.60;;;;;;;4.17;74.29;96058.56;4898288;29;20040;-73
2020/12/15 02:11:11;;;;;;;8.07;4.32;;;;;;;4.20;74.44;96055.59;4881445;29;20037;-73
2020/12/15 02:13:38;;;;;;;9.05;5.03;;;;;;;4.22;74.79;96045.81;4897928;29;20374;-73
2020/12/15 02:16:05;;;;;;;9.95;6.50;;;;;;;4.22;74.79;96053.63;4898249;29;20045;-73
2020/12/15 02:18:34;;;;;;;7.35;4.85;;;;;;;4.23;75.08;96050.03;4897952;29;20039;-73
2020/12/15 02:21:07;;;;;;;5.82;4.22;;;;;;;4.25;74.06;96035.09;4897977;29;20048;-73
2020/12/15 02:23:34;;;;;;;5.57;4.10;;;;;;;4.25;74.48;96025.50;4897943;29;20060;-73
2020/12/15 02:26:03;;;;;;;5.78;4.40;;;;;;;4.29;74.42;96027.72;4897968;29;20048;-73
2020/12/15 02:28:29;;;;;;;7.15;4.63;;;;;;;4.30;74.72;96003.38;4897910;29;20061;-73
2020/12/15 02:30:55;;;;;;;6.53;4.68;;;;;;;4.30;74.73;96011.94;4881804;29;20053;-73
2020/12/15 02:33:21;;;;;;;9.35;4.35;;;;;;;4.31;74.50;96016.16;4898425;29;20060;-73
2020/12/15 02:35:47;;;;;;;7.10;4.30;;;;;;;4.31;74.70;95995.41;4882607;29;20047;-73
2020/12/15 02:38:13;;;;;;;6.30;4.28;;;;;;;4.33;74.68;95990.03;4898059;29;20056;-73
2020/12/15 02:40:40;;;;;;;6.97;4.22;;;;;;;4.31;74.59;95995.41;4898192;29;20496;-73
2020/12/15 02:43:06;;;;;;;8.02;4.35;;;;;;;4.33;74.55;95974.44;4897645;29;20061;-73
2020/12/15 02:45:32;;;;;;;6.97;4.15;;;;;;;4.33;74.81;95967.47;4899136;29;20060;-73
2020/12/15 02:47:58;;;;;;;6.88;3.97;;;;;;;4.34;74.80;95970.84;4894302;29;20040;-73
2020/12/15 02:50:26;;;;;;;5.65;3.90;;;;;;;4.35;74.95;95962.09;4901392;29;20061;-74
2020/12/15 02:52:52;;;;;;;4.97;3.95;;;;;;;4.36;74.65;95935.13;4901103;29;20044;-73
2020/12/15 02:55:18;;;;;;;5.60;3.65;;;;;;;4.38;74.87;95941.72;4901055;29;20060;-73
2020/12/15 02:57:48;;;;;;;5.57;3.85;;;;;;;4.40;74.57;95970.09;4901262;29;20055;-73
2020/12/15 03:00:15;;;;;;;3.80;3.30;;;;;;;4.40;74.28;95991.66;4901284;29;20040;-73
2020/12/15 03:02:41;;;;;;;6.20;3.30;;;;;;;4.46;74.04;96005.69;4900385;29;20052;-73
2020/12/15 03:05:07;;;;;;;3.97;3.03;;;;;;;4.53;74.10;95998.72;4900960;29;20052;-73
2020/12/15 03:07:33;;;;;;;5.85;3.58;;;;;;;4.55;73.97;95986.34;4884268;29;20040;-73
2020/12/15 03:10:00;;;;;;;10.93;6.57;;;;;;;4.52;73.97;95973.75;4901307;29;20056;-73
2020/12/15 03:12:28;;;;;;;11.25;7.40;;;;;;;4.40;73.73;95975.28;4901100;29;20048;-73
2020/12/15 03:14:54;;;;;;;11.02;7.07;;;;;;;4.33;74.02;95946.69;4901102;29;20401;-73
2020/12/15 03:17:20;;;;;;;11.63;7.45;;;;;;;4.30;74.43;95954.84;4880363;29;20051;-73
2020/12/15 03:19:46;;;;;;;8.23;5.90;;;;;;;4.31;74.49;95976.44;4900953;29;20049;-73
2020/12/15 03:22:14;;;;;;;11.93;7.00;;;;;;;4.30;74.46;95978.22;4899952;29;20067;-73
2020/12/15 03:24:41;;;;;;;8.30;6.72;;;;;;;4.31;74.47;96005.00;4900078;29;20044;-74
2020/12/15 03:27:07;;;;;;;12.35;8.05;;;;;;;4.29;74.42;96001.78;4901024;29;20052;-73
2020/12/15 03:29:33;;;;;;;12.85;8.02;;;;;;;4.25;74.35;95989.16;4899534;29;20044;-73
2020/12/15 03:32:00;;;;;;;13.00;7.70;;;;;;;4.24;74.58;95994.53;4900895;29;20417;-73
2020/12/15 03:34:26;;;;;;;14.82;8.32;;;;;;;4.22;74.61;96022.47;4900845;29;20039;-72
2020/12/15 03:36:52;;;;;;;12.15;7.95;;;;;;;4.21;74.72;96021.69;4900746;29;20049;-73
2020/12/15 03:39:18;;;;;;;12.40;7.95;;;;;;;4.22;74.57;96019.88;4900676;29;20055;-73
2020/12/15 03:41:44;;;;;;;11.85;7.35;;;;;;;4.21;74.80;96046.84;4900558;29;20403;-73
2020/12/15 03:44:11;;;;;;;10.60;7.85;;;;;;;4.17;74.51;96035.22;4900695;29;20488;-73
2020/12/15 03:46:37;;;;;;;12.70;8.38;;;;;;;4.10;74.70;96029.19;4900651;29;20047;-73
2020/12/15 03:49:03;;;;;;;12.05;8.63;;;;;;;4.04;74.79;96031.53;4900829;29;20044;-73
2020/12/15 03:51:29;;;;;;;14.55;9.38;;;;;;;4.00;74.77;96032.09;4900590;29;20493;-73
2020/12/15 03:53:55;;;;;;;11.65;8.00;;;;;;;3.92;74.67;96025.22;4900477;29;20045;-73
2020/12/15 03:56:23;;;;;;;13.15;8.20;;;;;;;3.93;75.17;96019.06;4898884;29;20049;-73
2020/12/15 03:58:49;;;;;;;12.57;8.45;;;;;;;3.94;75.47;96025.03;4900372;29;20041;-73
2020/12/15 04:01:15;;;;;;;11.18;8.00;;;;;;;3.96;75.66;96029.06;4883375;29;20043;-73
2020/12/15 04:03:41;;;;;;;11.80;7.70;;;;;;;4.00;75.51;96030.28;4899263;29;20052;-73
2020/12/15 04:06:08;;;;;;;10.45;7.60;;;;;;;4.03;75.62;96036.88;4900403;29;20045;-73
2020/12/15 04:08:34;;;;;;;10.45;7.07;;;;;;;4.05;75.55;96047.88;4900243;29;20045;-73
2020/12/15 04:11:01;;;;;;;7.47;5.38;;;;;;;4.07;75.08;96049.31;4900064;29;20055;-73
2020/12/15 04:13:27;;;;;;;12.38;5.57;;;;;;;4.08;75.27;96047.53;4899862;29;20048;-73
2020/12/15 04:15:53;;;;;;;8.68;5.80;;;;;;;4.12;75.42;96050.56;4900316;29;20489;-73
2020/12/15 04:18:19;;;;;;;10.07;5.63;;;;;;;4.14;75.14;96046.78;4899000;29;20040;-73
2020/12/15 04:20:45;;;;;;;7.78;5.28;;;;;;;4.17;75.16;96046.41;4899804;29;20063;-73
2020/12/15 04:23:11;;;;;;;7.82;5.05;;;;;;;4.20;75.20;96051.22;4900153;29;20045;-73
2020/12/15 04:25:52;;;;;;;9.43;5.25;;;;;;;4.24;75.69;96047.28;4899703;29;20060;-73
2020/12/15 04:28:19;;;;;;;6.35;5.00;;;;;;;4.25;75.35;96056.66;4899741;29;20033;-73
2020/12/15 04:30:45;;;;;;;6.65;5.15;;;;;;;4.29;75.57;96064.06;4892447;29;20052;-73
2020/12/15 04:33:12;;;;;;;9.40;5.40;;;;;;;4.29;75.54;96057.09;4899893;29;20032;-73
2020/12/15 04:35:38;;;;;;;9.05;5.57;;;;;;;4.32;75.72;96066.28;4899827;29;20390;-73
2020/12/15 04:38:05;;;;;;;9.02;5.75;;;;;;;4.31;75.64;96062.88;4899772;29;20036;-73
2020/12/15 04:40:32;;;;;;;8.23;5.40;;;;;;;4.31;75.51;96057.69;4899555;29;20045;-73
2020/12/15 04:43:01;;;;;;;7.45;5.60;;;;;;;4.31;75.58;96051.72;4899495;29;20036;-73
2020/12/15 04:45:28;;;;;;;7.18;5.43;;;;;;;4.33;75.63;96039.34;4899654;29;20040;-73
2020/12/15 04:48:03;;;;;;;7.13;5.38;;;;;;;4.32;75.87;96025.53;4898778;29;20057;-73
2020/12/15 04:50:36;;;;;;;9.45;4.93;;;;;;;4.32;75.71;96015.16;4899141;29;20119;-73
2020/12/15 04:53:13;;;;;;;5.97;4.85;;;;;;;4.33;76.32;96008.19;4900175;29;20401;-73
2020/12/15 04:55:40;;;;;;;6.60;4.60;;;;;;;4.33;75.84;96003.81;4899347;29;20040;-73
2020/12/15 04:58:07;;;;;;;7.22;4.60;;;;;;;4.37;76.07;95997.25;4899446;29;20041;-73
2020/12/15 05:00:36;;;;;;;10.48;5.18;;;;;;;4.38;75.98;95996.22;4899159;29;20397;-74
2020/12/15 05:03:04;;;;;;;7.38;4.55;;;;;;;4.40;75.84;95996.06;4899212;29;20358;-73
2020/12/15 05:05:31;;;;;;;5.05;3.58;;;;;;;4.41;76.09;96006.25;4899137;29;20044;-73
2020/12/15 05:08:02;;;;;;;6.25;4.30;;;;;;;4.44;76.26;96007.66;4899084;29;20048;-73
2020/12/15 05:10:28;;;;;;;5.53;4.32;;;;;;;4.47;76.20;96015.88;4899523;29;20477;-73
2020/12/15 05:12:55;;;;;;;6.47;4.43;;;;;;;4.51;76.21;96018.09;4900537;29;20040;-73
2020/12/15 05:15:21;;;;;;;5.93;4.80;;;;;;;4.54;76.16;96008.13;4900386;29;20499;-73
2020/12/15 05:17:48;;;;;;;7.20;5.20;;;;;;;4.57;76.04;96002.53;4898867;29;20071;-73
2020/12/15 05:20:17;;;;;;;7.60;5.25;;;;;;;4.56;75.77;95995.75;4898865;29;20048;-73
2020/12/15 05:22:46;;;;;;;6.35;4.47;;;;;;;4.56;75.97;96008.75;4898917;29;20041;-73
2020/12/15 05:25:25;;;;;;;6.13;4.90;;;;;;;4.59;76.39;96017.94;4898874;29;20473;-73
2020/12/15 05:27:52;;;;;;;14.20;7.68;;;;;;;4.57;75.92;96010.34;4898599;29;20048;-73
2020/12/15 05:30:19;;;;;;;19.88;11.70;;;;;;;4.57;75.90;96018.13;4899053;29;20041;-73
2020/12/15 05:32:54;;;;;;;27.27;16.30;;;;;;;4.59;76.00;96023.13;4899474;29;20046;-73
2020/12/15 05:35:23;;;;;;;16.98;10.32;;;;;;;4.57;75.80;96020.72;4899126;29;20477;-73
2020/12/15 05:37:49;;;;;;;8.82;6.32;;;;;;;4.58;76.11;96013.75;4899389;29;20477;-72
2020/12/15 05:40:16;;;;;;;8.88;5.88;;;;;;;4.55;76.05;96016.72;4898422;29;20037;-73
2020/12/15 05:42:43;;;;;;;10.27;6.40;;;;;;;4.55;76.13;96014.91;4898601;29;20040;-73
2020/12/15 05:45:09;;;;;;;10.95;6.80;;;;;;;4.52;76.03;96007.53;4898652;29;20036;-74
2020/12/15 05:47:38;;;;;;;8.40;6.30;;;;;;;4.48;76.18;96009.69;4898293;29;20397;-73
2020/12/15 05:50:06;;;;;;;9.05;6.03;;;;;;;4.47;76.23;96026.28;4898844;29;20055;-73
2020/12/15 05:52:32;;;;;;;11.13;7.03;;;;;;;4.46;76.57;96023.84;4898084;29;20068;-73
2020/12/15 05:55:08;;;;;;;9.65;7.10;;;;;;;4.45;76.67;96038.63;4898260;29;20047;-73
2020/12/15 05:57:35;;;;;;;10.55;6.82;;;;;;;4.42;76.84;96039.00;4898710;29;20052;-73
2020/12/15 06:00:11;;;;;;;13.90;9.07;;;;;;;4.45;76.84;96041.25;4898638;29;20401;-73
2020/12/15 06:02:40;;;;;;;16.38;10.40;;;;;;;4.44;76.75;96033.63;4898221;29;20047;-73
2020/12/15 06:05:06;;;;;;;14.80;9.75;;;;;;;4.47;76.79;96041.84;4898288;29;20044;-73
2020/12/15 06:07:34;;;;;;;17.15;10.70;;;;;;;4.48;76.56;96048.63;4898119;29;20469;-73
2020/12/15 06:10:03;;;;;;;16.50;9.82;;;;;;;4.47;76.87;96038.44;4898956;29;20063;-73
2020/12/15 06:12:29;;;;;;;16.40;9.80;;;;;;;4.43;76.40;96037.19;4898130;29;20505;-73
2020/12/15 06:14:55;;;;;;;14.55;9.07;;;;;;;4.42;76.59;96040.81;4898458;29;20119;-73
2020/12/15 06:17:22;;;;;;;14.65;8.88;;;;;;;4.43;76.86;96037.19;4897939;29;20051;-73
2020/12/15 06:19:57;;;;;;;16.30;8.43;;;;;;;4.42;77.04;96044.19;4897503;29;20045;-73
2020/12/15 06:22:25;;;;;;;15.23;8.88;;;;;;;4.45;77.18;96043.00;4897847;29;20048;-73
2020/12/15 06:24:56;;;;;;;11.75;8.00;;;;;;;4.46;77.05;96042.03;4898165;29;20037;-73
2020/12/15 06:27:34;;;;;;;9.57;7.32;;;;;;;4.48;77.11;96040.84;4896954;29;20052;-73
2020/12/15 06:30:03;;;;;;;9.93;6.93;;;;;;;4.51;77.16;96044.06;4897898;29;20044;-72
2020/12/15 06:32:29;;;;;;;9.77;6.95;;;;;;;4.53;77.04;96042.06;4898411;29;20053;-73
2020/12/15 06:34:55;;;;;;;175.15;93.03;;;;;;;4.54;77.01;96046.28;4897871;29;20039;-73
2020/12/15 06:37:24;;;;;;;21.25;13.77;;;;;;;4.55;77.23;96037.50;4898027;29;20032;-73
2020/12/15 06:39:58;;;;;;;11.10;7.88;;;;;;;4.57;77.31;96040.69;4898385;29;20051;-73
2020/12/15 06:42:36;;;;;;;9.32;7.13;;;;;;;4.59;77.33;96039.50;4898020;29;20044;-73
2020/12/15 06:45:07;;;;;;;12.43;7.88;;;;;;;4.61;77.13;96045.31;4897945;29;20040;-73
2020/12/15 06:47:35;;;;;;;10.07;6.82;;;;;;;4.62;77.29;96049.53;4897598;29;20048;-73
2020/12/15 06:50:18;;;;;;;11.32;6.18;;;;;;;4.64;77.53;96044.97;4898103;29;20060;-73
2020/12/15 06:52:46;;;;;;;9.88;5.60;;;;;;;4.67;77.31;96043.78;4897788;29;20413;-73
2020/12/15 06:55:12;;;;;;;8.98;6.40;;;;;;;4.68;77.34;96048.78;4897702;29;20493;-73
2020/12/15 06:57:39;;;;;;;10.02;5.95;;;;;;;4.70;77.25;96039.97;4897822;29;20033;-73
2020/12/15 07:00:11;;;;;;;10.05;6.45;;;;;;;4.72;77.22;96038.00;4897662;29;20047;-73
2020/12/15 07:02:38;;;;;;;9.30;6.03;;;;;;;4.70;77.41;96034.78;4897634;29;20040;-73
2020/12/15 07:05:19;;;;;;;9.32;6.10;;;;;;;4.71;77.74;96037.19;4897726;29;20412;-73
2020/12/15 07:07:48;;;;;;;10.90;5.35;;;;;;;4.68;77.42;96043.59;4897517;29;20033;-73
2020/12/15 07:10:15;;;;;;;11.52;6.50;;;;;;;4.69;77.42;96034.00;4896911;29;20428;-73
2020/12/15 07:12:42;;;;;;;13.68;5.88;;;;;;;4.68;77.72;96042.75;4897942;29;20393;-72
2020/12/15 07:15:11;;;;;;;7.32;5.50;;;;;;;4.71;77.33;96041.59;4897522;29;20478;-72
2020/12/15 07:17:42;;;;;;;13.02;6.22;;;;;;;4.70;77.78;96047.78;4896753;29;20049;-73
2020/12/15 07:20:09;;;;;;;9.45;5.38;;;;;;;4.72;77.87;96053.59;4897638;29;20045;-73
2020/12/15 07:22:35;;;;;;;11.38;6.30;;;;;;;4.75;77.84;96061.00;4897595;29;20044;-73
2020/12/15 07:25:02;;;;;;;7.78;5.70;;;;;;;4.75;77.92;96067.00;4897386;29;20477;-73
2020/12/15 07:27:29;;;;;;;8.68;5.57;;;;;;;4.78;77.79;96071.81;4897347;29;20033;-73
2020/12/15 07:29:55;;;;;;;8.35;5.68;;;;;;;4.80;77.93;96069.03;4897319;29;20040;-73
2020/12/15 07:32:21;;;;;;;8.52;5.95;;;;;;;4.79;77.83;96064.84;4900605;29;20048;-73
2020/12/15 07:34:47;;;;;;;8.05;6.00;;;;;;;4.81;77.92;96073.25;4900688;29;20055;-73
2020/12/15 07:37:20;;;;;;;7.25;5.50;;;;;;;4.83;78.22;96068.63;4900487;29;20043;-73
2020/12/15 07:39:46;;;;;;;9.63;6.53;;;;;;;4.87;78.34;96072.44;4900762;29;20044;-73
2020/12/15 07:42:12;;;;;;;10.77;6.30;;;;;;;4.88;78.33;96081.88;4900518;29;20053;-73
2020/12/15 07:44:39;;;;;;;11.63;6.85;;;;;;;4.89;78.25;96088.66;4900610;29;20041;-74
2020/12/15 07:47:05;;;;;;;10.50;6.97;;;;;;;4.91;78.22;96084.06;4901370;29;20052;-73
2020/12/15 07:49:32;;;;;;;11.32;7.28;;;;;;;4.92;78.30;96080.50;4903227;29;20056;-73
2020/12/15 07:51:58;;;;;;;10.95;6.95;;;;;;;4.96;78.43;96078.31;4902255;29;20068;-74
2020/12/15 07:54:24;;;;;;;11.35;7.80;;;;;;;4.99;78.45;96081.31;4901147;29;20397;-73
2020/12/15 07:56:52;;;;;;;11.50;6.78;;;;;;;5.02;78.37;96075.75;4900703;29;20055;-73
2020/12/15 07:59:19;;;;;;;11.50;6.85;;;;;;;5.04;78.51;96076.38;4900520;29;20041;-73
2020/12/15 08:01:45;;;;;;;12.25;6.82;;;;;;;5.06;78.57;96076.97;4900647;29;20059;-74
2020/12/15 08:04:14;;;;;;;10.70;7.32;;;;;;;5.11;78.74;96086.00;4900413;29;20049;-73
2020/12/15 08:06:46;;;;;;;10.88;7.50;;;;;;;5.11;78.76;96081.59;4900401;29;20048;-72
2020/12/15 08:09:15;;;;;;;10.15;6.65;;;;;;;5.13;78.85;96087.41;4900688;29;20497;-72
2020/12/15 08:11:46;;;;;;;13.88;6.93;;;;;;;5.15;78.73;96100.22;4900463;29;20504;-73
2020/12/15 08:14:14;;;;;;;11.60;7.15;;;;;;;5.17;78.72;96099.03;4899492;29;20060;-73
2020/12/15 08:16:42;;;;;;;10.77;7.40;;;;;;;5.18;78.62;96102.41;4900331;29;20362;-73
2020/12/15 08:19:09;;;;;;;11.10;7.32;;;;;;;5.19;78.84;96091.03;4900502;29;20049;-73
2020/12/15 08:21:41;;;;;;;10.93;7.05;;;;;;;5.20;78.67;96092.63;4900416;29;20040;-73
2020/12/15 08:24:11;;;;;;;10.32;6.88;;;;;;;5.21;79.08;96105.44;4901398;29;20043;-73
2020/12/15 08:26:55;;;;;;;11.95;7.13;;;;;;;5.22;79.16;96093.25;4900967;29;20047;-73
2020/12/15 08:29:56;;;;;;;12.88;7.47;;;;;;;5.24;78.87;96101.66;4901103;29;20052;-73
2020/12/15 08:32:56;;;;;;;12.80;7.78;;;;;;;5.23;79.00;96103.47;4898857;29;20398;-74
2020/12/15 08:35:29;;;;;;;15.75;8.23;;;;;;;5.21;78.55;96104.66;4900287;29;20044;-73
2020/12/15 08:38:02;;;;;;;15.10;9.00;;;;;;;5.20;78.40;96118.63;4899733;29;20401;-72
2020/12/15 08:40:32;;;;;;;13.38;10.45;;;;;;;5.20;78.40;96118.63;4900870;29;20051;-72
2020/12/15 08:43:01;;;;;;;13.63;9.25;;;;;;;5.17;78.43;96116.41;4900894;29;20386;-72
2020/12/15 08:45:29;;;;;;;14.90;9.90;;;;;;;5.16;78.46;96120.00;4899155;29;20045;-74
2020/12/15 08:47:56;;;;;;;26.08;14.43;;;;;;;5.15;78.41;96118.41;4891715;29;20052;-72
2020/12/15 08:50:28;;;;;;;19.33;12.05;;;;;;;5.13;78.65;96116.00;4899285;29;20063;-74
2020/12/15 08:53:07;;;;;;;19.55;11.27;;;;;;;5.14;79.03;96114.97;4900704;29;20061;-74
2020/12/15 08:55:35;;;;;;;16.27;10.10;;;;;;;5.18;78.82;96111.00;4899806;29;20036;-73
2020/12/15 08:58:04;;;;;;;12.73;8.80;;;;;;;5.22;78.71;96124.44;4900466;29;20409;-73
2020/12/15 09:00:34;;;;;;;13.55;9.10;;;;;;;5.25;78.71;96111.88;4899286;29;20394;-73
2020/12/15 09:03:13;;;;;;;13.57;8.98;;;;;;;5.30;79.03;96116.47;4899162;29;20409;-73
2020/12/15 09:05:48;;;;;;;13.20;8.32;;;;;;;5.34;79.08;96111.72;4899135;29;20044;-73
2020/12/15 09:08:14;;;;;;;14.63;8.48;;;;;;;5.36;78.73;96120.91;4900147;29;20056;-73
2020/12/15 09:10:41;;;;;;;11.15;7.88;;;;;;;5.42;78.78;96129.75;4879498;29;20493;-73
2020/12/15 09:13:07;;;;;;;13.45;9.52;;;;;;;5.44;78.73;96119.97;4897635;29;20469;-73
2020/12/15 09:15:53;;;;;;;13.88;9.25;;;;;;;5.47;78.59;96125.56;4899392;29;20112;-74
2020/12/15 09:18:33;;;;;;;15.35;9.18;;;;;;;5.49;78.95;96126.16;4899412;29;20401;-73
2020/12/15 09:21:14;;;;;;;15.15;9.32;;;;;;;5.52;78.83;96143.19;4898897;29;20055;-73
2020/12/15 09:23:52;;;;;;;18.02;10.52;;;;;;;5.52;78.59;96130.16;4882529;29;20461;-73
2020/12/15 09:26:20;;;;;;;19.92;11.90;;;;;;;5.52;78.59;96135.38;4899030;29;20049;-73
2020/12/15 09:28:47;;;;;;;22.05;11.60;;;;;;;5.54;78.62;96141.19;4898695;29;20477;-74
2020/12/15 09:31:16;;;;;;;21.95;13.38;;;;;;;5.56;78.63;96147.00;4898718;29;20044;-73
2020/12/15 09:33:44;;;;;;;20.05;13.43;;;;;;;5.57;78.57;96140.03;4898714;29;20059;-74
2020/12/15 09:36:15;;;;;;;25.63;14.25;;;;;;;5.57;78.32;96145.22;4898758;29;20401;-74
2020/12/15 09:38:42;;;;;;;19.10;11.80;;;;;;;5.57;78.60;96142.63;4899327;29;20037;-73
2020/12/15 09:41:09;;;;;;;24.80;14.02;;;;;;;5.62;78.67;96155.84;4896134;29;20051;-73
2020/12/15 09:43:35;;;;;;;27.65;15.38;;;;;;;5.64;78.76;96144.22;4897129;29;20056;-73
2020/12/15 09:46:03;;;;;;;27.35;15.43;;;;;;;5.67;78.54;96149.06;4896108;29;20048;-73
2020/12/15 09:48:32;;;;;;;21.13;13.65;;;;;;;5.72;78.72;96139.88;4898276;29;20043;-73
2020/12/15 09:51:25;;;;;;;17.23;11.82;;;;;;;5.79;78.77;96146.69;4907451;29;20059;-73
2020/12/15 09:54:13;;;;;;;17.80;11.68;;;;;;;5.86;78.53;96142.31;4897859;29;20052;-72
2020/12/15 09:56:44;;;;;;;21.77;12.30;;;;;;;5.95;78.39;96142.19;4896967;29;20048;-73
2020/12/15 09:59:12;;;;;;;17.40;11.32;;;;;;;6.03;78.34;96129.00;4898378;29;20053;-73
2020/12/15 10:01:44;;;;;;;17.63;11.25;;;;;;;6.11;78.01;96131.41;4898096;29;20066;-73
2020/12/15 10:04:11;;;;;;;16.38;10.38;;;;;;;6.18;78.12;96126.22;4898914;29;20474;-73
2020/12/15 10:06:38;;;;;;;17.13;10.52;;;;;;;6.23;77.82;96145.44;4899055;29;20024;-73
2020/12/15 10:09:05;;;;;;;18.05;10.52;;;;;;;6.27;78.20;96146.66;4912581;29;20045;-73
2020/12/15 10:11:31;;;;;;;17.42;9.48;;;;;;;6.32;78.04;96155.66;4898089;29;20040;-73
2020/12/15 10:13:59;;;;;;;14.68;10.05;;;;;;;6.32;78.10;96155.66;4898845;29;20037;-73
2020/12/15 10:16:26;;;;;;;19.45;9.82;;;;;;;6.25;77.67;96156.47;4897706;29;20536;-73
2020/12/15 10:18:53;;;;;;;15.70;8.85;;;;;;;6.19;77.39;96146.03;4887778;29;20048;-73
2020/12/15 10:21:20;;;;;;;15.50;9.32;;;;;;;6.17;77.68;96143.63;4898287;29;20067;-73
2020/12/15 10:23:49;;;;;;;14.07;8.90;;;;;;;6.21;77.88;96138.84;4896689;29;20052;-73
2020/12/15 10:26:24;;;;;;;14.75;8.82;;;;;;;6.26;77.94;96136.44;4898393;29;20462;-73
2020/12/15 10:28:53;;;;;;;16.20;8.98;;;;;;;6.33;77.98;96136.47;4898516;29;20062;-73
2020/12/15 10:31:20;;;;;;;18.33;8.65;;;;;;;6.36;77.93;96131.63;4898178;29;20410;-73
2020/12/15 10:33:47;;;;;;;15.63;8.98;;;;;;;6.39;77.89;96136.47;4897998;29;20417;-73
2020/12/15 10:36:15;;;;;;;13.35;8.68;;;;;;;6.42;77.72;96137.88;4897844;29;20496;-73
2020/12/15 10:38:43;;;;;;;14.35;9.13;;;;;;;6.45;77.59;96129.66;4898037;29;20049;-73
2020/12/15 10:41:10;;;;;;;14.93;8.80;;;;;;;6.46;77.58;96145.06;4898058;29;20059;-74
2020/12/15 10:43:37;;;;;;;13.75;9.10;;;;;;;6.46;77.37;96132.03;4898519;29;20052;-73
2020/12/15 10:46:03;;;;;;;20.55;9.15;;;;;;;6.46;77.71;96139.06;4897608;29;20044;-73
2020/12/15 10:48:31;;;;;;;16.17;8.90;;;;;;;6.47;77.50;96140.69;4898123;29;20055;-74
2020/12/15 10:50:58;;;;;;;15.43;9.13;;;;;;;6.47;78.10;96138.09;4897284;29;20052;-72
2020/12/15 10:53:24;;;;;;;15.00;10.52;;;;;;;6.47;77.73;96136.28;4897923;29;20485;-73
2020/12/15 10:55:51;;;;;;;16.52;9.48;;;;;;;6.50;77.91;96132.47;4898302;29;20053;-73
2020/12/15 10:58:18;;;;;;;15.18;8.38;;;;;;;6.52;77.84;96138.28;4897921;29;20389;-73
2020/12/15 11:00:45;;;;;;;18.25;9.27;;;;;;;6.56;78.00;96138.69;4896597;29;20049;-74
2020/12/15 11:03:12;;;;;;;17.13;9.05;;;;;;;6.57;77.86;96138.47;4886638;29;20041;-73
2020/12/15 11:05:39;;;;;;;15.00;9.50;;;;;;;6.60;77.80;96132.06;4898751;29;20404;-74
2020/12/15 11:08:06;;;;;;;16.35;9.07;;;;;;;6.62;78.02;96133.47;4901737;29;20041;-73
2020/12/15 11:10:32;;;;;;;17.55;10.43;;;;;;;6.67;78.07;96125.06;4901327;29;20041;-73
2020/12/15 11:13:00;;;;;;;20.63;11.13;;;;;;;6.69;78.42;96129.06;4901535;29;20036;-74
2020/12/15 11:15:27;;;;;;;17.73;11.35;;;;;;;6.71;78.70;96134.88;4901317;29;20044;-73
2020/12/15 11:17:54;;;;;;;16.88;11.48;;;;;;;6.76;78.58;96143.88;4901082;29;20055;-73
2020/12/15 11:20:21;;;;;;;18.38;12.02;;;;;;;6.76;78.67;96126.47;4900718;29;20488;-73
2020/12/15 11:22:48;;;;;;;19.50;13.00;;;;;;;6.79;78.91;96126.06;4901120;29;20040;-73
2020/12/15 11:25:17;;;;;;;20.95;12.90;;;;;;;6.82;78.94;96119.63;4900097;29;20045;-73
2020/12/15 11:27:44;;;;;;;17.77;12.45;;;;;;;6.83;79.16;96114.22;4900993;29;20040;-73
2020/12/15 11:30:11;;;;;;;16.05;11.20;;;;;;;6.86;79.42;96105.97;4900912;29;20052;-73
2020/12/15 11:32:38;;;;;;;54.28;31.00;;;;;;;6.87;79.40;96107.59;4900429;29;20059;-74
2020/12/15 11:35:05;;;;;;;37.08;19.92;;;;;;;6.92;79.47;96107.00;4901586;29;20492;-74
2020/12/15 11:37:31;;;;;;;56.25;25.40;;;;;;;6.96;79.36;96108.19;4900955;29;20057;-74
2020/12/15 11:39:58;;;;;;;51.50;24.85;;;;;;;7.00;79.24;96111.19;4900933;29;20064;-74
2020/12/15 11:42:24;;;;;;;21.90;13.45;;;;;;;7.02;79.43;96106.59;4899482;29;20040;-74